createdAt,value
2022-09-30T00:08:34.000Z,78.5
2022-09-30T00:18:33.994Z,79.0
2022-09-30T00:28:33.998Z,79.5
2022-09-30T00:38:34.016Z,79.0
2022-09-30T00:48:33.999Z,79.0
2022-09-30T00:58:34.006Z,79.0
2022-09-30T01:08:34.005Z,79.0
2022-09-30T01:18:34.013Z,79.5
2022-09-30T01:28:34.021Z,79.5
2022-09-30T01:38:34.020Z,79.5
2022-09-30T01:48:34.033Z,80.0
2022-09-30T01:58:34.030Z,80.0
2022-09-30T02:08:34.045Z,80.0
2022-09-30T02:18:34.042Z,80.0
2022-09-30T02:28:34.102Z,80.0
2022-09-30T02:38:34.051Z,80.0
2022-09-30T02:48:34.048Z,80.0
2022-09-30T02:58:34.053Z,80.0
2022-09-30T03:08:34.064Z,80.5
2022-09-30T03:18:34.064Z,81.0
2022-09-30T03:28:34.071Z,81.0
2022-09-30T03:38:34.074Z,81.0
2022-09-30T03:48:34.087Z,81.0
2022-09-30T03:58:34.090Z,81.5
2022-09-30T04:08:34.123Z,81.5
2022-09-30T04:18:34.096Z,81.5
2022-09-30T04:28:34.095Z,81.5
2022-09-30T04:38:34.105Z,81.0
2022-09-30T04:48:34.108Z,81.0
2022-09-30T04:58:37.033Z,81.0
2022-09-30T05:08:34.041Z,81.5
2022-09-30T05:18:34.114Z,81.5
2022-09-30T05:28:34.122Z,82.0
2022-09-30T05:38:34.024Z,82.0
2022-09-30T05:48:34.129Z,82.0
2022-09-30T05:58:34.140Z,82.5
2022-09-30T06:08:34.144Z,82.5
2022-09-30T06:18:34.142Z,82.5
2022-09-30T06:28:34.302Z,82.5
2022-09-30T06:38:34.173Z,87.0
2022-09-30T06:48:38.519Z,86.5
2022-09-30T06:58:34.113Z,75.0
2022-09-30T07:08:34.120Z,71.0
2022-09-30T07:18:34.129Z,71.0
2022-09-30T07:28:34.117Z,72.0
2022-09-30T07:38:34.134Z,73.5
2022-09-30T07:48:34.130Z,74.5
2022-09-30T07:58:34.140Z,75.5
2022-09-30T08:08:34.140Z,76.0
2022-09-30T08:18:34.149Z,77.0
2022-09-30T08:28:34.155Z,77.5
2022-09-30T08:38:34.165Z,77.5
2022-09-30T08:48:34.183Z,77.0
2022-09-30T08:58:34.182Z,77.0
2022-09-30T09:08:34.183Z,77.0
2022-09-30T09:18:34.193Z,76.5
2022-09-30T09:28:34.204Z,76.0
2022-09-30T09:38:34.217Z,75.0
2022-09-30T09:48:34.231Z,74.0
2022-09-30T09:58:34.224Z,72.5
2022-09-30T10:08:34.227Z,71.0
2022-09-30T10:18:34.238Z,70.0
2022-09-30T10:28:34.335Z,68.5
2022-09-30T10:38:34.334Z,68.0
2022-09-30T10:48:34.274Z,66.5
2022-09-30T10:58:34.276Z,66.0
2022-09-30T11:08:34.287Z,65.0
2022-09-30T11:18:34.286Z,64.5
2022-09-30T11:28:34.305Z,63.0
2022-09-30T11:38:34.293Z,63.0
2022-09-30T11:48:34.323Z,62.5
2022-09-30T11:58:41.467Z,61.0
2022-09-30T12:08:34.314Z,59.5
2022-09-30T12:18:34.324Z,58.0
2022-09-30T12:28:34.334Z,57.0
2022-09-30T12:38:34.341Z,57.0
2022-09-30T12:48:34.346Z,57.0
2022-09-30T12:58:34.347Z,56.0
2022-09-30T13:08:34.352Z,57.5
2022-09-30T13:18:34.369Z,57.0
2022-09-30T13:28:34.412Z,56.0
2022-09-30T13:38:34.379Z,57.0
2022-09-30T13:48:34.381Z,56.0
2022-09-30T13:58:34.397Z,55.0
2022-09-30T14:08:34.396Z,55.0
2022-09-30T14:18:34.449Z,54.5
2022-09-30T14:28:34.404Z,54.5
2022-09-30T14:38:34.416Z,54.5
2022-09-30T14:48:34.675Z,54.0
2022-09-30T14:58:34.427Z,54.5
2022-09-30T15:08:34.433Z,54.0
2022-09-30T15:18:34.440Z,54.5
2022-09-30T15:28:34.442Z,55.0
2022-09-30T15:38:34.440Z,55.0
2022-09-30T15:48:34.455Z,55.0
2022-09-30T15:58:34.453Z,55.0
2022-09-30T16:08:34.461Z,55.0
2022-09-30T16:18:34.865Z,55.5
2022-09-30T16:28:34.468Z,56.0
2022-09-30T16:38:34.472Z,57.0
2022-09-30T16:48:34.477Z,57.5
2022-09-30T16:58:34.480Z,58.5
2022-09-30T17:08:34.483Z,59.0
2022-09-30T17:18:34.493Z,60.0
2022-09-30T17:28:34.488Z,60.5
2022-09-30T17:38:34.495Z,61.0
2022-09-30T17:48:34.505Z,61.5
2022-09-30T17:58:34.500Z,62.0
2022-09-30T18:08:34.510Z,62.5
2022-09-30T18:18:34.509Z,63.0
2022-09-30T18:28:34.512Z,63.5
2022-09-30T18:38:34.521Z,63.5
2022-09-30T18:48:34.527Z,64.0
2022-09-30T18:58:34.524Z,64.0
2022-09-30T19:08:34.532Z,64.5
2022-09-30T19:18:34.533Z,64.5
2022-09-30T19:28:34.550Z,64.5
2022-09-30T19:38:36.985Z,64.5
2022-09-30T19:48:34.556Z,64.5
2022-09-30T19:58:34.563Z,65.0
2022-09-30T20:08:34.572Z,65.0
2022-09-30T20:18:34.583Z,64.5
2022-09-30T20:28:34.643Z,64.5
2022-09-30T20:38:34.593Z,64.5
2022-09-30T20:48:34.592Z,64.0
2022-09-30T20:58:34.592Z,64.0
2022-09-30T21:08:34.605Z,63.5
2022-09-30T21:18:34.606Z,63.5
2022-09-30T21:28:34.610Z,63.5
2022-09-30T21:38:34.627Z,64.0
2022-09-30T21:48:34.622Z,64.0
2022-09-30T21:58:34.637Z,64.0
2022-09-30T22:08:34.649Z,64.0
2022-09-30T22:18:34.645Z,64.5
2022-09-30T22:28:34.794Z,65.0
2022-09-30T22:38:34.653Z,66.5
2022-09-30T22:48:34.653Z,67.5
2022-09-30T22:58:34.653Z,69.0
2022-09-30T23:08:34.792Z,70.5
2022-09-30T23:18:34.670Z,72.0
2022-09-30T23:28:34.699Z,73.5
2022-09-30T23:38:34.674Z,75.0
2022-09-30T23:48:34.681Z,76.0
2022-09-30T23:58:34.682Z,76.5
